Time;durP1;ratioP1;P1;durP2;ratioP2;P2;SDS_P1;SDS_P2;PMS_P1;PMS_P2;Temp;Humidity;BMP_temperature;BMP_pressure;BME280_temperature;BME280_humidity;BME280_pressure;Samples;Min_cycle;Max_cycle;Signal;HPM_P1;HPM_P2
2023/09/13 00:00:56;;;;;;;8.23;2.90;;;;;;;16.79;100.00;99512.75;5090098;28;20092;-88
2023/09/13 00:03:40;;;;;;;13.02;3.35;;;;;;;16.10;100.00;99525.13;5102441;28;20043;-88
2023/09/13 00:06:24;;;;;;;11.07;3.03;;;;;;;16.37;100.00;99527.53;5086344;28;20050;-87
2023/09/13 00:09:09;;;;;;;12.82;2.85;;;;;;;16.29;100.00;99527.78;5086522;28;20046;-86
2023/09/13 00:11:53;;;;;;;16.23;3.38;;;;;;;16.60;100.00;99523.38;5088085;28;20042;-85
2023/09/13 00:14:37;;;;;;;11.05;3.45;;;;;;;16.29;100.00;99538.38;5107261;28;20080;-87
2023/09/13 00:17:22;;;;;;;12.43;3.42;;;;;;;16.44;100.00;99537.22;5101076;28;20042;-87
2023/09/13 00:20:07;;;;;;;8.50;3.00;;;;;;;16.62;100.00;99537.22;5099939;28;20462;-89
2023/09/13 00:22:51;;;;;;;13.45;3.20;;;;;;;16.47;100.00;99552.69;5097093;28;20153;-86
2023/09/13 00:25:35;;;;;;;16.08;5.28;;;;;;;16.15;100.00;99552.81;5117831;27;20112;-86
2023/09/13 00:28:19;;;;;;;14.90;3.80;;;;;;;16.61;100.00;99546.22;5087465;28;20046;-87
2023/09/13 00:31:03;;;;;;;7.55;3.20;;;;;;;16.31;100.00;99540.84;5096418;28;20081;-87
2023/09/13 00:33:47;;;;;;;14.70;3.35;;;;;;;16.32;100.00;99543.28;5111498;27;20062;-87
2023/09/13 00:36:34;;;;;;;9.10;3.40;;;;;;;16.37;100.00;99547.88;5083459;28;20070;-90
2023/09/13 00:39:18;;;;;;;11.63;3.20;;;;;;;16.31;100.00;99543.47;5094457;28;20058;-87
2023/09/13 00:42:03;;;;;;;12.70;3.53;;;;;;;16.52;100.00;99548.34;5088632;28;20034;-89
2023/09/13 00:44:47;;;;;;;8.43;3.03;;;;;;;16.31;100.00;99551.44;5084191;28;20070;-89
2023/09/13 00:47:31;;;;;;;12.05;2.97;;;;;;;16.42;100.00;99548.84;5098019;28;20444;-88
2023/09/13 00:50:16;;;;;;;9.13;3.17;;;;;;;16.28;100.00;99557.97;5090761;28;20046;-86
2023/09/13 00:53:00;;;;;;;15.50;3.20;;;;;;;16.26;100.00;99552.06;5088014;28;20043;-88
2023/09/13 00:55:45;;;;;;;7.07;3.00;;;;;;;16.44;100.00;99555.78;5087773;28;20395;-87
2023/09/13 00:58:30;;;;;;;10.77;3.55;;;;;;;16.61;100.00;99546.22;5103354;28;20047;-86
2023/09/13 01:01:16;;;;;;;12.50;3.95;;;;;;;16.41;100.00;99544.59;5089369;28;20051;-88
2023/09/13 01:04:02;;;;;;;23.95;3.58;;;;;;;16.28;100.00;99542.06;5083824;28;20062;-85
2023/09/13 01:06:46;;;;;;;10.70;3.50;;;;;;;16.58;100.00;99536.06;5096160;28;20066;-86
2023/09/13 01:09:31;;;;;;;9.43;3.35;;;;;;;16.41;100.00;99536.63;5101105;28;20523;-87
2023/09/13 01:12:16;;;;;;;11.25;3.30;;;;;;;16.33;100.00;99539.59;5102656;28;20089;-89
2023/09/13 01:15:02;;;;;;;15.18;3.90;;;;;;;16.25;100.00;99538.03;5081859;28;20440;-88
2023/09/13 01:17:54;;;;;;;10.60;4.03;;;;;;;16.41;100.00;99541.94;5087503;28;20100;-88
2023/09/13 01:20:48;;;;;;;9.75;3.20;;;;;;;16.56;100.00;99544.22;5084101;28;20062;-85
2023/09/13 01:24:03;;;;;;;10.82;3.55;;;;;;;16.69;100.00;99542.44;5085002;28;20039;-85
2023/09/13 01:26:58;;;;;;;6.30;2.88;;;;;;;16.22;100.00;99542.97;5086783;28;20410;-87
2023/09/13 01:29:44;;;;;;;12.18;3.70;;;;;;;16.35;100.00;99532.22;5083528;28;20093;-89
2023/09/13 01:32:28;;;;;;;13.90;3.70;;;;;;;16.55;100.00;99531.19;5092293;28;20080;-86
2023/09/13 01:35:12;;;;;;;12.13;3.10;;;;;;;16.32;100.00;99548.56;5105787;28;20120;-87
2023/09/13 01:37:57;;;;;;;8.68;3.35;;;;;;;16.63;100.00;99541.50;5085719;28;20074;-88
2023/09/13 01:40:44;;;;;;;7.68;2.80;;;;;;;16.28;100.00;99534.13;5115320;27;20047;-86
2023/09/13 01:43:29;;;;;;;12.13;3.08;;;;;;;16.16;100.00;99535.91;5083927;28;20046;-86
2023/09/13 01:46:13;;;;;;;11.15;3.42;;;;;;;16.07;100.00;99538.00;5089768;28;20050;-85
2023/09/13 01:48:59;;;;;;;14.38;3.65;;;;;;;16.41;100.00;99547.25;5090978;28;20047;-85
2023/09/13 01:51:45;;;;;;;9.77;3.20;;;;;;;15.93;100.00;99539.97;5104084;28;20097;-88
2023/09/13 01:54:33;;;;;;;8.88;3.20;;;;;;;16.31;100.00;99549.59;5104954;28;20038;-86
2023/09/13 01:57:17;;;;;;;7.75;2.92;;;;;;;16.16;100.00;99546.50;5083803;28;20084;-87
2023/09/13 02:00:01;;;;;;;14.05;3.70;;;;;;;16.60;100.00;99560.50;5106668;28;20110;-87
2023/09/13 02:02:46;;;;;;;9.55;3.20;;;;;;;16.67;100.00;99555.13;5101019;28;20042;-87
2023/09/13 02:05:30;;;;;;;19.15;3.88;;;;;;;16.24;100.00;99562.09;5099231;28;20042;-87
2023/09/13 02:08:14;;;;;;;9.90;3.45;;;;;;;16.72;100.00;99567.72;5085355;28;20089;-87
2023/09/13 02:10:58;;;;;;;7.60;2.83;;;;;;;16.55;100.00;99568.31;5116477;28;20066;-88
2023/09/13 02:13:41;;;;;;;10.23;3.10;;;;;;;16.92;100.00;99578.88;5095287;28;20055;-89
2023/09/13 02:16:26;;;;;;;9.50;3.65;;;;;;;16.78;100.00;99582.72;5085041;28;20084;-87
2023/09/13 02:19:09;;;;;;;8.07;2.90;;;;;;;16.81;100.00;99587.56;5084061;28;20108;-87
2023/09/13 02:21:53;;;;;;;9.27;3.53;;;;;;;16.58;100.00;99590.88;5098280;28;20080;-87
2023/09/13 02:24:37;;;;;;;10.32;2.85;;;;;;;16.97;100.00;99604.72;5085585;28;20042;-87
2023/09/13 02:27:21;;;;;;;12.18;3.10;;;;;;;16.85;100.00;99594.03;5080476;28;20043;-87
2023/09/13 02:30:06;;;;;;;10.63;2.97;;;;;;;16.81;100.00;99592.88;5100164;28;20101;-89
2023/09/13 02:32:50;;;;;;;13.07;3.53;;;;;;;16.64;100.00;99593.47;5085131;28;20500;-88
2023/09/13 02:35:35;;;;;;;8.82;2.70;;;;;;;16.77;100.00;99594.34;5080871;28;20066;-87
2023/09/13 02:38:18;;;;;;;8.32;2.80;;;;;;;16.56;100.00;99599.88;5085911;28;20119;-87
2023/09/13 02:41:03;;;;;;;9.20;3.35;;;;;;;16.70;100.00;99586.47;5094883;28;20043;-88
2023/09/13 02:43:46;;;;;;;8.02;3.17;;;;;;;16.50;100.00;99589.31;5085305;28;20144;-88
2023/09/13 02:46:31;;;;;;;11.15;2.97;;;;;;;16.31;100.00;99597.28;5088774;28;20181;-89
2023/09/13 02:49:14;;;;;;;7.10;3.00;;;;;;;16.33;100.00;99597.06;5090644;28;20062;-88
2023/09/13 02:51:58;;;;;;;12.27;3.58;;;;;;;16.58;100.00;99606.78;5084256;28;20062;-89
2023/09/13 02:54:44;;;;;;;13.85;3.00;;;;;;;16.36;100.00;99604.56;5089804;28;20081;-86
2023/09/13 02:57:28;;;;;;;18.92;3.20;;;;;;;16.55;100.00;99606.19;5090539;28;20160;-89
2023/09/13 03:00:13;;;;;;;9.48;3.20;;;;;;;16.73;100.00;99601.13;5093264;28;20045;-89
2023/09/13 03:02:58;;;;;;;15.02;3.08;;;;;;;16.46;100.00;99610.19;5082707;28;20070;-88
2023/09/13 03:05:42;;;;;;;10.27;3.05;;;;;;;16.18;100.00;99605.34;5115012;27;20583;-87
2023/09/13 03:08:26;;;;;;;10.00;3.45;;;;;;;16.66;100.00;99607.31;5105933;28;20097;-86
2023/09/13 03:11:15;;;;;;;12.07;2.90;;;;;;;16.70;100.00;99605.03;5093710;28;20055;-89
2023/09/13 03:13:59;;;;;;;11.27;2.92;;;;;;;16.65;100.00;99615.50;5093048;28;20035;-86
2023/09/13 03:16:43;;;;;;;10.68;3.03;;;;;;;16.63;100.00;99618.34;5120139;27;20702;-88
2023/09/13 03:19:29;;;;;;;12.70;2.90;;;;;;;16.24;100.00;99612.41;5092349;28;20046;-87
2023/09/13 03:22:13;;;;;;;14.70;2.92;;;;;;;16.45;100.00;99613.03;5100330;28;20047;-89
2023/09/13 03:24:57;;;;;;;8.80;3.15;;;;;;;16.38;100.00;99616.56;5087544;28;20093;-86
2023/09/13 03:27:41;;;;;;;11.77;2.67;;;;;;;16.48;100.00;99616.06;5089567;28;20038;-87
2023/09/13 03:30:25;;;;;;;10.85;2.88;;;;;;;16.95;100.00;99620.88;5082854;28;20054;-85
2023/09/13 03:33:09;;;;;;;12.77;3.70;;;;;;;16.37;100.00;99620.25;5088368;28;20561;-85
2023/09/13 03:35:54;;;;;;;9.95;2.97;;;;;;;16.04;100.00;99610.75;5100580;28;20570;-85
2023/09/13 03:38:39;;;;;;;7.07;2.97;;;;;;;16.42;100.00;99623.03;5099287;28;20047;-87
2023/09/13 03:41:25;;;;;;;15.77;3.25;;;;;;;17.08;100.00;99624.41;5086378;28;20097;-89
2023/09/13 03:44:10;;;;;;;10.20;3.63;;;;;;;17.07;100.00;99622.78;5082342;28;20043;-89
2023/09/13 03:46:55;;;;;;;12.57;3.40;;;;;;;16.89;100.00;99621.72;5104529;28;20096;-87
2023/09/13 03:49:39;;;;;;;10.02;2.67;;;;;;;16.87;100.00;99629.09;5088834;28;20042;-89
2023/09/13 03:52:23;;;;;;;10.32;3.50;;;;;;;16.63;100.00;99626.31;5085841;28;20107;-86
2023/09/13 03:55:07;;;;;;;13.85;3.42;;;;;;;16.78;100.00;99636.53;5090870;28;20082;-89
2023/09/13 03:57:51;;;;;;;8.50;2.60;;;;;;;16.82;100.00;99626.31;5114222;27;20038;-87
2023/09/13 04:00:36;;;;;;;10.07;2.80;;;;;;;17.24;100.00;99631.75;5083925;28;20046;-90
2023/09/13 04:03:21;;;;;;;9.52;3.15;;;;;;;16.87;100.00;99645.00;5080932;28;20094;-88
2023/09/13 04:06:05;;;;;;;7.68;2.60;;;;;;;16.76;100.00;99635.94;5100266;28;20173;-87
2023/09/13 04:08:50;;;;;;;8.68;3.13;;;;;;;16.31;100.00;99636.19;5081991;28;20101;-86
2023/09/13 04:11:34;;;;;;;6.78;2.47;;;;;;;16.65;100.00;99634.84;5079809;28;20119;-87
2023/09/13 04:14:18;;;;;;;8.52;3.00;;;;;;;16.88;100.00;99646.63;5085292;28;20558;-87
2023/09/13 04:17:02;;;;;;;7.45;3.47;;;;;;;16.61;100.00;99643.47;5098870;28;20043;-85
2023/09/13 04:19:46;;;;;;;6.72;2.83;;;;;;;16.60;100.00;99637.34;5085287;28;20429;-85
2023/09/13 04:22:31;;;;;;;6.85;2.72;;;;;;;16.44;100.00;99629.97;5098872;28;20169;-87
2023/09/13 04:25:15;;;;;;;9.57;4.07;;;;;;;16.50;100.00;99626.44;5082701;28;20069;-88
2023/09/13 04:27:59;;;;;;;15.05;3.22;;;;;;;16.76;100.00;99629.84;5087780;28;20110;-87
2023/09/13 04:30:43;;;;;;;10.45;2.75;;;;;;;16.61;100.00;99636.31;5088635;28;20081;-87
2023/09/13 04:33:46;;;;;;;5.75;2.80;;;;;;;16.64;100.00;99630.56;5084713;28;20058;-87
2023/09/13 04:36:30;;;;;;;7.55;2.70;;;;;;;16.77;100.00;99642.88;5085224;28;20104;-87
2023/09/13 04:39:14;;;;;;;8.27;2.60;;;;;;;15.97;100.00;99626.69;5086499;28;20397;-88
2023/09/13 04:41:59;;;;;;;9.98;2.83;;;;;;;16.32;100.00;99646.59;5085684;28;20118;-88
2023/09/13 04:44:43;;;;;;;5.80;2.55;;;;;;;16.22;100.00;99640.97;5086636;28;20127;-88
2023/09/13 04:47:27;;;;;;;10.52;3.28;;;;;;;16.60;99.54;99640.00;5081814;28;20093;-87
2023/09/13 04:50:11;;;;;;;7.15;2.65;;;;;;;16.47;100.00;99645.41;5087818;28;20047;-87
2023/09/13 04:52:54;;;;;;;10.27;2.80;;;;;;;16.48;100.00;99641.72;5082780;28;20083;-87
2023/09/13 04:55:42;;;;;;;7.97;2.70;;;;;;;16.30;99.59;99651.25;5083111;28;20097;-86
2023/09/13 04:58:27;;;;;;;10.82;2.75;;;;;;;16.19;100.00;99652.00;5082355;28;20050;-88
2023/09/13 05:01:11;;;;;;;7.68;2.60;;;;;;;16.36;100.00;99655.72;5090072;28;20049;-86
2023/09/13 05:03:56;;;;;;;12.93;3.28;;;;;;;15.96;100.00;99662.13;5078630;28;20070;-88
2023/09/13 05:06:40;;;;;;;10.88;2.67;;;;;;;16.05;99.89;99664.53;5101114;28;20121;-87
2023/09/13 05:09:24;;;;;;;5.85;2.70;;;;;;;16.31;99.50;99671.47;5087309;28;20043;-87
2023/09/13 05:12:08;;;;;;;6.75;2.30;;;;;;;16.13;99.80;99682.78;5089394;28;20097;-89
2023/09/13 05:14:52;;;;;;;7.22;2.63;;;;;;;16.23;100.00;99682.31;5088382;28;20132;-86
2023/09/13 05:17:36;;;;;;;11.95;2.72;;;;;;;15.96;100.00;99688.59;5082914;28;20524;-88
2023/09/13 05:20:20;;;;;;;11.82;3.63;;;;;;;16.07;100.00;99681.81;5098978;28;20452;-86
2023/09/13 05:23:04;;;;;;;10.10;2.80;;;;;;;16.32;99.44;99686.31;5085897;28;20047;-87
2023/09/13 05:25:49;;;;;;;12.57;3.22;;;;;;;16.16;99.71;99692.16;5081996;28;20078;-87
2023/09/13 05:28:33;;;;;;;9.20;2.70;;;;;;;16.12;99.73;99678.53;5099963;28;20394;-88
2023/09/13 05:31:19;;;;;;;10.32;2.22;;;;;;;16.41;98.80;99681.56;5083841;28;20043;-87
2023/09/13 05:34:03;;;;;;;12.20;3.08;;;;;;;16.70;97.85;99688.03;5103050;28;20034;-87
2023/09/13 05:36:47;;;;;;;7.50;2.25;;;;;;;16.11;98.95;99690.97;5081458;28;20074;-86
2023/09/13 05:39:31;;;;;;;4.60;2.25;;;;;;;16.55;98.31;99691.00;5097367;28;20089;-87
2023/09/13 05:42:15;;;;;;;5.10;2.20;;;;;;;16.68;97.79;99692.72;5084458;28;20065;-87
2023/09/13 05:44:59;;;;;;;8.18;2.80;;;;;;;16.74;97.40;99684.94;5084629;28;20531;-86
2023/09/13 05:47:43;;;;;;;7.45;2.63;;;;;;;16.59;97.67;99686.09;5086194;28;20101;-88
2023/09/13 05:50:28;;;;;;;8.13;2.83;;;;;;;16.66;97.88;99681.53;5089656;28;20495;-90
2023/09/13 05:53:13;;;;;;;7.22;2.97;;;;;;;16.63;97.11;99681.16;5091462;28;20581;-89
2023/09/13 05:55:57;;;;;;;7.90;2.80;;;;;;;16.28;97.88;99685.94;5114454;28;20095;-90
2023/09/13 05:58:43;;;;;;;9.60;2.50;;;;;;;16.88;96.89;99691.69;5092494;28;20047;-90
2023/09/13 06:01:27;;;;;;;6.55;2.55;;;;;;;16.90;96.50;99694.97;5088895;28;20386;-89
2023/09/13 06:04:11;;;;;;;5.60;2.22;;;;;;;17.28;95.33;99699.25;5103328;28;20055;-90
2023/09/13 06:06:55;;;;;;;6.38;2.67;;;;;;;16.99;96.50;99706.91;5090838;28;20406;-88
2023/09/13 06:09:39;;;;;;;6.65;2.80;;;;;;;16.86;96.68;99704.38;5083868;28;20467;-90
2023/09/13 06:12:23;;;;;;;9.15;2.83;;;;;;;17.07;95.93;99707.66;5082008;28;20074;-86
2023/09/13 06:15:08;;;;;;;9.43;2.20;;;;;;;17.28;96.41;99704.53;5101644;28;20553;-86
2023/09/13 06:17:53;;;;;;;6.88;2.40;;;;;;;17.44;96.67;99712.94;5080010;28;20070;-87
2023/09/13 06:20:37;;;;;;;5.95;2.35;;;;;;;17.26;96.20;99722.53;5103143;28;20125;-85
2023/09/13 06:23:36;;;;;;;8.55;2.35;;;;;;;17.80;96.78;99721.88;5106187;28;20524;-85
2023/09/13 06:26:20;;;;;;;10.18;2.97;;;;;;;17.58;95.95;99718.88;5102690;28;20116;-83
2023/09/13 06:29:05;;;;;;;9.52;2.47;;;;;;;18.00;93.89;99726.09;5081567;28;20051;-85
2023/09/13 06:31:50;;;;;;;7.70;2.63;;;;;;;17.78;93.05;99729.25;5109394;28;20070;-87
2023/09/13 06:34:34;;;;;;;6.72;2.67;;;;;;;18.17;93.73;99725.47;5100925;28;20603;-84
2023/09/13 06:37:18;;;;;;;3.60;2.05;;;;;;;18.12;93.09;99737.59;5087307;28;20110;-86
2023/09/13 06:40:03;;;;;;;7.15;2.05;;;;;;;17.89;93.02;99730.34;5096765;28;20453;-86
2023/09/13 06:42:47;;;;;;;10.15;2.05;;;;;;;18.25;92.00;99730.44;5088565;28;20047;-88
2023/09/13 06:45:31;;;;;;;7.05;2.30;;;;;;;17.84;92.95;99738.97;5099576;28;20055;-88
2023/09/13 06:48:15;;;;;;;6.20;2.15;;;;;;;17.92;92.26;99745.03;5106911;28;20042;-88
2023/09/13 06:51:00;;;;;;;6.72;2.08;;;;;;;17.79;92.54;99741.50;5089278;28;20042;-86
2023/09/13 06:53:44;;;;;;;7.22;2.42;;;;;;;18.09;92.71;99754.00;5086860;28;20042;-87
2023/09/13 06:56:28;;;;;;;6.03;2.03;;;;;;;17.69;93.33;99746.53;5085204;28;20123;-84
2023/09/13 06:59:13;;;;;;;7.82;2.10;;;;;;;17.69;93.19;99747.34;5114818;27;20534;-85
2023/09/13 07:01:56;;;;;;;10.38;2.92;;;;;;;17.76;92.62;99749.09;5080302;28;20112;-86
2023/09/13 07:04:40;;;;;;;6.25;1.92;;;;;;;17.60;92.56;99758.50;5082788;28;20176;-86
2023/09/13 07:07:24;;;;;;;6.28;1.98;;;;;;;17.68;93.40;99760.81;5097388;28;20061;-86
2023/09/13 07:10:08;;;;;;;5.85;2.20;;;;;;;17.78;93.16;99773.56;5102731;28;20500;-88
2023/09/13 07:12:53;;;;;;;6.50;2.38;;;;;;;17.98;92.41;99773.31;5082144;28;20120;-87
2023/09/13 07:15:38;;;;;;;5.35;1.95;;;;;;;18.15;92.31;99767.41;5088372;28;20055;-86
2023/09/13 07:18:24;;;;;;;12.00;2.55;;;;;;;18.31;91.05;99769.41;5087568;28;20105;-86
2023/09/13 07:21:08;;;;;;;7.90;2.42;;;;;;;18.78;91.80;99762.53;5086382;28;20054;-86
2023/09/13 07:23:52;;;;;;;5.40;2.15;;;;;;;19.03;89.62;99759.66;5104474;28;20085;-86
2023/09/13 07:26:36;;;;;;;6.43;2.33;;;;;;;18.98;89.27;99765.69;5085435;28;20047;-86
2023/09/13 07:29:20;;;;;;;7.13;1.80;;;;;;;19.32;88.24;99773.03;5098513;28;20097;-85
2023/09/13 07:32:05;;;;;;;4.18;2.05;;;;;;;19.09;87.22;99761.38;5085135;28;20047;-87
2023/09/13 07:34:49;;;;;;;4.50;1.75;;;;;;;19.44;87.52;99766.91;5083494;28;20117;-87
2023/09/13 07:37:33;;;;;;;6.95;2.03;;;;;;;19.60;88.01;99774.16;5101220;28;20104;-85
2023/09/13 07:40:18;;;;;;;3.15;1.73;;;;;;;19.42;87.72;99775.09;5102354;28;20039;-86
2023/09/13 07:43:01;;;;;;;8.40;2.10;;;;;;;19.05;87.07;99781.53;5113326;27;20116;-86
2023/09/13 07:45:46;;;;;;;8.63;2.33;;;;;;;19.49;88.12;99785.63;5102250;28;20070;-86
2023/09/13 07:48:30;;;;;;;5.95;2.53;;;;;;;20.23;87.36;99786.75;5103201;28;20047;-86
2023/09/13 07:51:14;;;;;;;6.25;2.47;;;;;;;20.05;85.87;99775.28;5101366;28;20109;-87
2023/09/13 07:54:03;;;;;;;3.63;2.05;;;;;;;20.23;85.64;99786.75;5101096;28;20038;-87
2023/09/13 07:56:48;;;;;;;6.32;2.88;;;;;;;20.21;84.46;99788.84;5103574;28;20053;-87
2023/09/13 07:59:31;;;;;;;8.93;2.42;;;;;;;20.20;84.44;99795.25;5102111;28;20088;-86
2023/09/13 08:02:16;;;;;;;7.57;2.13;;;;;;;20.25;82.69;99803.34;5086489;28;20451;-86
2023/09/13 08:04:59;;;;;;;5.25;1.88;;;;;;;20.21;83.28;99804.84;5101359;28;20084;-86
2023/09/13 08:07:44;;;;;;;8.02;2.30;;;;;;;20.16;83.51;99802.09;5104343;28;20039;-87
2023/09/13 08:10:29;;;;;;;8.40;2.35;;;;;;;19.47;84.02;99807.19;5082975;28;20054;-86
2023/09/13 08:13:13;;;;;;;14.95;2.85;;;;;;;19.72;84.38;99811.41;5085885;28;20042;-86
2023/09/13 08:15:58;;;;;;;5.03;2.00;;;;;;;19.88;84.87;99817.81;5104082;28;20066;-86
2023/09/13 08:18:42;;;;;;;10.40;2.92;;;;;;;19.87;84.53;99832.19;5102764;28;20046;-86
2023/09/13 08:21:26;;;;;;;6.07;2.10;;;;;;;20.37;82.95;99833.41;5084168;28;20100;-87
2023/09/13 08:24:10;;;;;;;6.15;2.92;;;;;;;20.06;82.41;99835.53;5100938;28;20500;-87
2023/09/13 08:26:53;;;;;;;5.40;1.80;;;;;;;21.03;81.78;99833.94;5104452;28;20050;-87
2023/09/13 08:29:39;;;;;;;10.15;2.30;;;;;;;20.92;80.61;99835.63;5104849;28;20039;-86
2023/09/13 08:32:23;;;;;;;5.53;2.00;;;;;;;21.17;80.68;99832.53;5089050;28;20042;-86
2023/09/13 08:35:07;;;;;;;6.43;2.22;;;;;;;21.33;80.89;99840.78;5084919;28;20180;-87
2023/09/13 08:37:51;;;;;;;5.13;2.40;;;;;;;21.57;80.03;99840.53;5103416;28;21776;-87
2023/09/13 08:40:44;;;;;;;7.00;2.45;;;;;;;21.45;77.48;99836.13;5085042;28;20046;-86
2023/09/13 08:43:30;;;;;;;9.03;2.43;;;;;;;22.23;77.39;99840.50;5087138;28;20047;-87
2023/09/13 08:46:16;;;;;;;7.38;2.20;;;;;;;21.64;77.27;99841.19;5100256;28;20326;-87
2023/09/13 08:49:02;;;;;;;8.77;2.60;;;;;;;20.71;78.37;99845.16;5086907;28;20050;-86
2023/09/13 08:51:48;;;;;;;6.15;2.47;;;;;;;20.71;79.10;99845.16;5097527;28;20045;-86
2023/09/13 08:54:33;;;;;;;7.03;2.30;;;;;;;21.07;78.76;99856.44;5080839;28;20417;-86
2023/09/13 08:57:18;;;;;;;11.85;2.70;;;;;;;20.84;78.97;99860.91;5094915;28;20524;-86
2023/09/13 09:00:07;;;;;;;6.18;2.65;;;;;;;21.13;79.47;99858.13;5102565;28;20398;-86
2023/09/13 09:02:54;;;;;;;7.22;2.75;;;;;;;20.92;79.73;99857.81;5098996;28;20492;-86
2023/09/13 09:05:40;;;;;;;7.30;2.40;;;;;;;21.29;78.74;99856.47;5101210;28;20058;-86
2023/09/13 09:08:26;;;;;;;6.85;2.58;;;;;;;21.68;79.05;99853.00;5098691;28;20104;-86
2023/09/13 09:11:11;;;;;;;6.13;2.35;;;;;;;21.38;77.62;99854.19;5096137;28;20047;-86
2023/09/13 09:13:58;;;;;;;6.72;2.70;;;;;;;21.80;77.97;99851.00;5084765;28;20058;-86
2023/09/13 09:16:45;;;;;;;6.38;2.10;;;;;;;21.67;77.09;99846.84;5099996;28;20046;-86
2023/09/13 09:19:30;;;;;;;11.27;2.97;;;;;;;21.69;76.50;99846.59;5102839;28;20070;-86
2023/09/13 09:22:16;;;;;;;8.15;2.30;;;;;;;21.87;76.82;99858.03;5081438;28;20102;-86
2023/09/13 09:25:00;;;;;;;11.38;2.78;;;;;;;21.24;78.27;99859.88;5084419;28;20097;-86
2023/09/13 09:27:45;;;;;;;8.82;2.78;;;;;;;21.99;77.72;99868.59;5104550;28;20112;-81
2023/09/13 09:30:31;;;;;;;9.90;3.00;;;;;;;21.38;75.00;99851.50;5099375;28;20042;-81
2023/09/13 09:33:26;;;;;;;8.48;2.70;;;;;;;21.93;77.44;99849.00;5081355;28;20043;-81
2023/09/13 09:36:13;;;;;;;8.82;2.78;;;;;;;21.65;76.63;99848.97;5082145;28;20058;-81
2023/09/13 09:38:57;;;;;;;7.97;2.72;;;;;;;21.29;77.01;99851.13;5081663;28;20535;-81
2023/09/13 09:41:41;;;;;;;11.45;2.88;;;;;;;20.87;78.02;99851.56;5081768;28;20031;-86
2023/09/13 09:44:28;;;;;;;5.57;2.83;;;;;;;21.04;76.73;99854.25;5087685;28;20402;-86
2023/09/13 09:47:15;;;;;;;6.63;2.72;;;;;;;21.41;76.04;99851.00;5082871;28;20448;-86
2023/09/13 09:50:06;;;;;;;7.32;2.65;;;;;;;21.32;77.43;99855.19;5081557;28;20055;-87
2023/09/13 09:52:50;;;;;;;8.38;3.15;;;;;;;21.20;75.73;99863.28;5096714;28;20101;-86
2023/09/13 09:55:36;;;;;;;6.53;2.33;;;;;;;21.52;77.01;99860.78;5081790;28;20042;-86
2023/09/13 09:58:22;;;;;;;9.23;2.38;;;;;;;21.98;75.47;99862.44;5099634;28;20399;-86
2023/09/13 10:01:06;;;;;;;6.68;3.00;;;;;;;20.91;76.09;99858.84;5100103;28;20047;-86
2023/09/13 10:03:54;;;;;;;8.40;2.70;;;;;;;22.02;76.08;99858.22;5099555;28;20054;-86
2023/09/13 10:07:05;;;;;;;7.53;2.63;;;;;;;22.65;74.42;99859.63;5098332;28;20045;-86
2023/09/13 10:09:49;;;;;;;7.57;3.08;;;;;;;22.17;73.97;99854.91;5097839;28;20081;-86
2023/09/13 10:12:44;;;;;;;6.47;2.70;;;;;;;22.96;72.94;99859.88;5080918;28;20119;-86
2023/09/13 10:15:28;;;;;;;8.18;2.85;;;;;;;22.67;74.28;99858.34;5104729;28;20054;-87
2023/09/13 10:18:16;;;;;;;12.02;2.90;;;;;;;22.75;72.12;99867.75;5103917;28;20409;-87
2023/09/13 10:21:03;;;;;;;13.98;3.58;;;;;;;23.02;71.74;99856.16;5092917;28;20124;-87
2023/09/13 10:24:07;;;;;;;6.82;3.05;;;;;;;23.19;71.38;99857.88;5101267;28;20039;-86
2023/09/13 10:26:54;;;;;;;4.47;2.72;;;;;;;23.26;70.62;99858.50;5102544;28;20508;-87
2023/09/13 10:30:02;;;;;;;8.82;3.10;;;;;;;23.42;70.04;99851.38;5099262;28;20042;-86
2023/09/13 10:32:50;;;;;;;6.22;3.15;;;;;;;24.62;68.83;99853.31;5098095;28;20507;-86
2023/09/13 10:35:40;;;;;;;8.65;2.78;;;;;;;24.51;67.37;99851.69;5083136;28;20039;-87
2023/09/13 10:38:56;;;;;;;7.30;3.00;;;;;;;24.42;65.97;99850.63;5099927;28;20096;-84
2023/09/13 10:41:57;;;;;;;7.43;3.30;;;;;;;24.95;65.92;99859.19;5041720;28;20062;-85
2023/09/13 10:44:43;;;;;;;12.77;3.47;;;;;;;24.54;66.27;99848.47;5103033;28;20038;-85
2023/09/13 10:47:28;;;;;;;7.07;3.47;;;;;;;24.91;66.84;99847.41;5086810;28;20058;-87
2023/09/13 10:50:14;;;;;;;5.80;3.17;;;;;;;25.43;65.44;99852.66;5089089;28;20979;-87
2023/09/13 10:52:59;;;;;;;11.02;3.80;;;;;;;25.02;63.39;99850.09;5102277;28;20054;-87
2023/09/13 10:55:44;;;;;;;8.82;3.95;;;;;;;24.72;63.08;99847.13;5080959;28;20070;-87
2023/09/13 10:58:30;;;;;;;15.13;5.00;;;;;;;24.41;63.00;99839.06;5098296;28;20043;-86
2023/09/13 11:01:15;;;;;;;14.40;5.25;;;;;;;24.62;63.88;99849.81;5078277;28;20039;-86
2023/09/13 11:04:00;;;;;;;9.15;4.75;;;;;;;25.11;64.08;99853.81;5084341;28;20053;-86
2023/09/13 11:06:44;;;;;;;8.98;4.35;;;;;;;25.75;63.34;99851.50;5083805;28;20047;-86
2023/09/13 11:09:31;;;;;;;11.40;4.22;;;;;;;26.21;62.48;99837.00;5103880;28;20057;-87
2023/09/13 11:12:15;;;;;;;12.25;4.38;;;;;;;26.38;62.28;99850.06;5105220;28;20097;-85
2023/09/13 11:15:14;;;;;;;10.77;3.90;;;;;;;25.99;60.48;99858.91;5104280;28;20546;-86
2023/09/13 11:18:14;;;;;;;8.38;5.03;;;;;;;25.84;59.15;99851.72;5083837;28;20443;-86
2023/09/13 11:20:58;;;;;;;13.77;5.22;;;;;;;25.85;60.52;99852.53;5100300;28;20429;-86
2023/09/13 11:23:43;;;;;;;9.38;4.72;;;;;;;26.54;60.20;99851.84;5099120;28;20096;-86
2023/09/13 11:26:45;;;;;;;8.23;4.80;;;;;;;26.84;61.42;99863.44;5083307;28;20042;-85
2023/09/13 11:29:29;;;;;;;9.13;4.93;;;;;;;26.99;59.84;99863.31;5098789;28;20059;-86
2023/09/13 11:32:21;;;;;;;7.75;3.97;;;;;;;27.30;59.85;99859.50;5099015;28;20039;-86
2023/09/13 11:35:07;;;;;;;11.30;4.13;;;;;;;27.44;57.65;99863.13;5107765;28;20080;-87
2023/09/13 11:37:51;;;;;;;5.82;3.75;;;;;;;27.72;57.88;99857.16;5106257;28;20097;-86
2023/09/13 11:40:37;;;;;;;6.63;3.55;;;;;;;27.71;57.89;99855.56;5081689;28;20366;-86
2023/09/13 11:43:23;;;;;;;10.98;3.97;;;;;;;27.26;56.04;99855.78;5101440;28;20520;-86
2023/09/13 11:46:08;;;;;;;6.63;3.25;;;;;;;27.46;57.29;99855.53;5101842;28;20039;-86
2023/09/13 11:48:57;;;;;;;7.47;3.08;;;;;;;26.87;57.63;99846.75;5098165;28;20505;-86
2023/09/13 11:51:50;;;;;;;9.60;3.50;;;;;;;27.19;58.04;99851.53;5088619;28;20035;-86
2023/09/13 11:54:59;;;;;;;9.75;4.28;;;;;;;27.01;56.95;99844.19;5087184;28;20035;-86
2023/09/13 11:57:53;;;;;;;7.43;4.32;;;;;;;26.72;55.45;99842.25;5087011;28;20086;-85
2023/09/13 12:00:41;;;;;;;8.90;3.88;;;;;;;26.81;55.90;99841.34;5083704;28;20485;-87
2023/09/13 12:03:30;;;;;;;7.20;3.70;;;;;;;26.79;56.25;99840.06;5100347;28;20089;-86
2023/09/13 12:06:15;;;;;;;6.93;3.80;;;;;;;26.73;56.75;99831.22;5089439;28;20386;-86
2023/09/13 12:08:59;;;;;;;6.68;3.97;;;;;;;26.56;55.45;99833.50;5102867;28;20054;-86
2023/09/13 12:11:43;;;;;;;;;;;;;;;26.54;56.32;99831.13;5092601;28;20042;-86
2023/09/13 12:14:30;;;;;;;8.60;4.18;;;;;;;26.09;54.26;99831.94;5105585;28;19962;-85
2023/09/13 12:17:14;;;;;;;9.32;4.55;;;;;;;26.21;53.90;99825.44;5080185;28;20519;-86
2023/09/13 12:19:58;;;;;;;6.55;3.83;;;;;;;26.30;55.49;99831.81;5106972;28;20063;-86
2023/09/13 12:22:42;;;;;;;7.57;4.18;;;;;;;26.42;56.41;99834.16;5090384;28;20112;-86
2023/09/13 12:25:26;;;;;;;9.27;4.43;;;;;;;26.65;55.81;99824.53;5085325;28;20046;-86
2023/09/13 12:28:10;;;;;;;8.93;4.55;;;;;;;26.28;55.21;99822.44;5088100;28;20520;-86
2023/09/13 12:30:55;;;;;;;9.68;4.00;;;;;;;26.30;56.50;99829.13;5100157;28;20500;-86
2023/09/13 12:33:41;;;;;;;8.15;4.18;;;;;;;26.31;52.71;99819.97;5085434;28;20104;-85
2023/09/13 12:36:25;;;;;;;10.05;5.60;;;;;;;26.23;54.17;99820.59;5101682;28;20089;-86
2023/09/13 12:39:14;;;;;;;6.32;4.50;;;;;;;26.33;54.72;99819.69;5089862;28;20456;-86
2023/09/13 12:41:58;;;;;;;9.45;4.45;;;;;;;26.23;52.02;99810.59;5101737;28;20116;-85
2023/09/13 12:44:45;;;;;;;9.73;4.88;;;;;;;26.32;53.58;99802.75;5103494;28;20165;-85
2023/09/13 12:47:29;;;;;;;8.55;4.80;;;;;;;26.14;53.06;99795.31;5105481;28;20050;-86
2023/09/13 12:50:14;;;;;;;10.90;4.65;;;;;;;26.20;53.53;99796.94;5099920;28;20066;-86
2023/09/13 12:52:58;;;;;;;7.93;5.10;;;;;;;26.51;52.89;99793.97;5098367;28;20039;-86